Time;durP1;ratioP1;P1;durP2;ratioP2;P2;SDS_P1;SDS_P2;PMS_P1;PMS_P2;Temp;Humidity;BMP_temperature;BMP_pressure;BME280_temperature;BME280_humidity;BME280_pressure;Samples;Min_cycle;Max_cycle;Signal;HPM_P1;HPM_P2
2023/06/30 00:01:18;;;;;;;;;;;15.60;99.90;;;;;;5110757;28;20353;-86
2023/06/30 00:03:45;;;;;;;;;;;15.60;99.90;;;;;;5111644;28;19934;-85
2023/06/30 00:06:10;;;;;;;;;;;15.60;99.90;;;;;;5100621;28;19927;-83
2023/06/30 00:08:36;;;;;;;;;;;15.60;99.90;;;;;;5109830;28;19912;-84
2023/06/30 00:11:02;;;;;;;;;;;15.60;99.90;;;;;;5117078;28;19908;-84
2023/06/30 00:13:27;;;;;;;;;;;15.60;99.90;;;;;;5118636;28;19920;-87
2023/06/30 00:15:54;;;;;;;;;;;15.60;99.90;;;;;;5106296;28;19943;-85
2023/06/30 00:18:20;;;;;;;;;;;15.60;99.90;;;;;;5107875;28;20322;-85
2023/06/30 00:20:46;;;;;;;;;;;15.70;99.90;;;;;;5120309;28;19916;-86
2023/06/30 00:23:14;;;;;;;;;;;15.70;99.90;;;;;;5130799;28;19908;-85
2023/06/30 00:25:40;;;;;;;;;;;15.70;99.90;;;;;;5115237;28;19927;-82
2023/06/30 00:28:05;;;;;;;;;;;15.60;99.90;;;;;;5129955;28;19970;-84
2023/06/30 00:30:31;;;;;;;;;;;15.60;99.90;;;;;;5135750;28;19915;-84
2023/06/30 00:32:56;;;;;;;;;;;15.60;99.90;;;;;;5120013;28;20357;-85
2023/06/30 00:35:22;;;;;;;;;;;15.60;99.90;;;;;;5114456;28;19908;-85
2023/06/30 00:37:48;;;;;;;;;;;15.60;99.90;;;;;;5137708;28;19916;-84
2023/06/30 00:40:16;;;;;;;;;;;15.60;99.90;;;;;;5098558;28;19915;-84
2023/06/30 00:42:42;;;;;;;;;;;15.60;99.90;;;;;;5117319;28;19904;-86
2023/06/30 00:45:08;;;;;;;;;;;15.70;99.90;;;;;;5121174;28;19979;-84
2023/06/30 00:47:34;;;;;;;;;;;15.70;99.90;;;;;;5120972;28;19908;-85
2023/06/30 00:49:59;;;;;;;;;;;15.70;99.90;;;;;;5113692;28;20375;-85
2023/06/30 00:52:25;;;;;;;;;;;15.60;99.90;;;;;;5107427;28;19953;-85
2023/06/30 00:54:51;;;;;;;;;;;15.60;99.90;;;;;;5115910;28;19924;-86
2023/06/30 00:57:16;;;;;;;;;;;15.60;99.90;;;;;;5116332;28;19912;-85
2023/06/30 00:59:42;;;;;;;;;;;15.60;99.90;;;;;;5100505;28;20384;-85
2023/06/30 01:02:11;;;;;;;;;;;15.60;99.90;;;;;;5097393;28;20291;-83
2023/06/30 01:05:06;;;;;;;;;;;15.50;99.90;;;;;;5115638;28;20283;-85
2023/06/30 01:07:35;;;;;;;;;;;15.50;99.90;;;;;;5092193;28;19916;-83
2023/06/30 01:10:05;;;;;;;;;;;15.50;99.90;;;;;;5108052;28;19974;-85
2023/06/30 01:12:31;;;;;;;;;;;15.50;99.90;;;;;;5093881;28;19933;-85
2023/06/30 01:14:57;;;;;;;;;;;15.50;99.90;;;;;;5093850;28;20357;-84
2023/06/30 01:17:24;;;;;;;;;;;15.50;99.90;;;;;;5112043;28;19964;-84
2023/06/30 01:19:53;;;;;;;;;;;15.40;99.90;;;;;;5102448;28;19911;-85
2023/06/30 01:22:40;;;;;;;;;;;15.40;99.90;;;;;;5113406;28;19915;-84
2023/06/30 01:25:08;;;;;;;;;;;15.40;99.90;;;;;;5111653;28;19951;-84
2023/06/30 01:27:36;;;;;;;;;;;15.40;99.90;;;;;;5113965;28;20010;-85
2023/06/30 01:30:08;;;;;;;;;;;15.50;99.90;;;;;;5115143;28;19908;-86
2023/06/30 01:32:34;;;;;;;;;;;15.50;99.90;;;;;;5094350;28;19998;-83
2023/06/30 01:35:00;;;;;;;;;;;15.60;99.90;;;;;;5111152;28;19954;-84
2023/06/30 01:37:25;;;;;;;;;;;15.60;99.90;;;;;;5100432;28;20380;-86
2023/06/30 01:39:51;;;;;;;;;;;15.60;99.90;;;;;;5109476;28;19919;-86
2023/06/30 01:42:17;;;;;;;;;;;15.60;99.90;;;;;;5093100;28;19999;-85
2023/06/30 01:44:43;;;;;;;;;;;15.50;99.90;;;;;;5108403;28;19919;-84
2023/06/30 01:47:09;;;;;;;;;;;15.60;99.90;;;;;;5138992;28;19967;-86
2023/06/30 01:49:35;;;;;;;;;;;15.60;99.90;;;;;;5129977;28;19907;-84
2023/06/30 01:52:01;;;;;;;;;;;15.50;99.90;;;;;;5115228;28;19922;-84
2023/06/30 01:54:26;;;;;;;;;;;15.60;99.90;;;;;;5116762;28;19990;-84
2023/06/30 01:56:52;;;;;;;;;;;15.60;99.90;;;;;;5113666;28;20280;-86
2023/06/30 01:59:18;;;;;;;;;;;15.60;99.90;;;;;;5127223;28;19929;-83
2023/06/30 02:01:43;;;;;;;;;;;15.50;99.90;;;;;;5110101;28;19980;-85
2023/06/30 02:04:09;;;;;;;;;;;15.50;99.90;;;;;;5104214;28;19909;-83
2023/06/30 02:06:35;;;;;;;;;;;15.50;99.90;;;;;;5111463;28;20003;-84
2023/06/30 02:09:00;;;;;;;;;;;15.50;99.90;;;;;;5100151;28;20372;-84
2023/06/30 02:11:26;;;;;;;;;;;15.50;99.90;;;;;;5128951;28;19908;-82
2023/06/30 02:13:52;;;;;;;;;;;15.60;99.90;;;;;;5110632;28;19934;-85
2023/06/30 02:16:18;;;;;;;;;;;15.60;99.90;;;;;;5127718;28;19999;-83
2023/06/30 02:18:43;;;;;;;;;;;15.70;99.90;;;;;;5115429;28;19908;-84
2023/06/30 02:21:09;;;;;;;;;;;15.70;99.90;;;;;;5136803;28;19907;-83
2023/06/30 02:23:34;;;;;;;;;;;15.70;99.90;;;;;;5139138;28;19934;-83
2023/06/30 02:26:00;;;;;;;;;;;15.80;99.90;;;;;;5093575;28;20297;-85
2023/06/30 02:28:26;;;;;;;;;;;15.80;99.90;;;;;;5120328;28;19994;-85
2023/06/30 02:30:51;;;;;;;;;;;15.80;99.90;;;;;;5121042;28;19919;-83
2023/06/30 02:33:17;;;;;;;;;;;15.80;99.90;;;;;;5120638;28;19908;-83
2023/06/30 02:35:43;;;;;;;;;;;15.80;99.90;;;;;;5115886;28;19986;-84
2023/06/30 02:38:09;;;;;;;;;;;15.80;99.90;;;;;;5108662;28;19912;-82
2023/06/30 02:40:36;;;;;;;;;;;15.80;99.90;;;;;;5107861;28;19907;-84
2023/06/30 02:43:02;;;;;;;;;;;15.80;99.90;;;;;;5096169;28;19995;-84
2023/06/30 02:45:27;;;;;;;;;;;15.80;99.90;;;;;;5098655;28;20433;-87
2023/06/30 02:47:53;;;;;;;;;;;15.80;99.90;;;;;;5110596;28;19912;-85
2023/06/30 02:50:21;;;;;;;;;;;15.70;99.90;;;;;;5112192;28;19908;-84
2023/06/30 02:52:47;;;;;;;;;;;15.70;99.90;;;;;;5102714;28;19974;-84
2023/06/30 02:55:13;;;;;;;;;;;15.70;99.90;;;;;;5109892;28;19924;-84
2023/06/30 02:57:38;;;;;;;;;;;15.70;99.90;;;;;;5084968;28;20041;-84
2023/06/30 03:00:04;;;;;;;;;;;15.70;99.90;;;;;;5117180;28;19958;-84
2023/06/30 03:02:30;;;;;;;;;;;15.70;99.90;;;;;;5101681;28;20452;-85
2023/06/30 03:04:55;;;;;;;;;;;15.70;99.90;;;;;;5109682;28;19944;-84
2023/06/30 03:07:21;;;;;;;;;;;15.80;99.90;;;;;;5100430;28;19944;-84
2023/06/30 03:09:47;;;;;;;;;;;15.80;99.90;;;;;;5109917;28;19908;-85
2023/06/30 03:12:13;;;;;;;;;;;15.80;99.90;;;;;;5102018;28;19908;-84
2023/06/30 03:14:39;;;;;;;;;;;15.80;99.90;;;;;;5120884;28;19908;-85
2023/06/30 03:17:05;;;;;;;;;;;15.80;99.90;;;;;;5135296;28;19919;-85
2023/06/30 03:19:30;;;;;;;;;;;15.80;99.90;;;;;;5114642;27;19911;-86
2023/06/30 03:21:56;;;;;;;;;;;15.80;99.90;;;;;;5131031;28;19908;-85
2023/06/30 03:24:22;;;;;;;;;;;15.60;99.90;;;;;;5100837;28;19938;-85
2023/06/30 03:26:47;;;;;;;;;;;15.60;99.90;;;;;;5099763;28;20292;-87
2023/06/30 03:29:13;;;;;;;;;;;15.60;99.90;;;;;;5109225;28;19912;-87
2023/06/30 03:31:39;;;;;;;;;;;15.50;99.90;;;;;;5110314;28;19984;-85
2023/06/30 03:34:04;;;;;;;;;;;15.60;99.90;;;;;;5099877;28;19908;-87
2023/06/30 03:36:30;;;;;;;;;;;15.60;99.90;;;;;;5111725;28;20021;-87
2023/06/30 03:38:56;;;;;;;;;;;15.60;99.90;;;;;;5098291;28;20296;-88
2023/06/30 03:41:21;;;;;;;;;;;15.70;99.90;;;;;;5112831;28;19954;-87
2023/06/30 03:43:47;;;;;;;;;;;15.70;99.90;;;;;;5099453;28;19908;-84
2023/06/30 03:46:15;;;;;;;;;;;15.70;99.90;;;;;;5109495;28;19920;-84
2023/06/30 03:48:41;;;;;;;;;;;15.80;99.90;;;;;;5115265;28;19912;-85
2023/06/30 03:51:06;;;;;;;;;;;15.70;99.90;;;;;;5103103;28;19908;-87
2023/06/30 03:53:32;;;;;;;;;;;15.80;99.90;;;;;;5106113;28;19919;-84
2023/06/30 03:55:58;;;;;;;;;;;15.80;99.90;;;;;;5105674;28;20005;-83
2023/06/30 03:58:24;;;;;;;;;;;15.90;99.90;;;;;;5100940;28;19908;-85
2023/06/30 04:00:50;;;;;;;;;;;16.00;99.90;;;;;;5120533;28;19916;-85
2023/06/30 04:03:16;;;;;;;;;;;16.00;99.90;;;;;;5116616;28;19912;-85
2023/06/30 04:05:42;;;;;;;;;;;15.90;99.90;;;;;;5114272;28;20280;-91
2023/06/30 04:08:08;;;;;;;;;;;15.90;99.90;;;;;;5089410;28;19993;-91
2023/06/30 04:10:34;;;;;;;;;;;15.80;99.90;;;;;;5106084;28;19908;-89
2023/06/30 04:12:59;;;;;;;;;;;15.80;99.90;;;;;;5092887;28;19908;-88
2023/06/30 04:15:25;;;;;;;;;;;15.80;99.90;;;;;;5105397;28;19918;-88
2023/06/30 04:17:50;;;;;;;;;;;15.80;99.90;;;;;;5101092;28;19907;-88
2023/06/30 04:20:16;;;;;;;;;;;15.90;99.90;;;;;;5113203;28;20376;-86
2023/06/30 04:22:42;;;;;;;;;;;16.00;99.90;;;;;;5106774;28;19908;-85
2023/06/30 04:25:08;;;;;;;;;;;16.10;99.90;;;;;;5117584;28;19960;-86
2023/06/30 04:27:34;;;;;;;;;;;16.10;99.90;;;;;;5103734;28;19912;-85
2023/06/30 04:30:00;;;;;;;;;;;16.20;99.90;;;;;;5118346;28;20377;-85
2023/06/30 04:32:25;;;;;;;;;;;16.20;99.90;;;;;;5097442;28;19923;-85
2023/06/30 04:34:51;;;;;;;;;;;16.20;99.90;;;;;;5108149;28;19908;-84
2023/06/30 04:37:17;;;;;;;;;;;16.20;99.90;;;;;;5122321;28;19956;-86
2023/06/30 04:39:42;;;;;;;;;;;16.30;99.90;;;;;;5103443;28;19908;-85
2023/06/30 04:42:08;;;;;;;;;;;16.30;99.90;;;;;;5102256;28;19975;-85
2023/06/30 04:44:34;;;;;;;;;;;16.40;99.90;;;;;;5097537;28;19912;-86
2023/06/30 04:47:00;;;;;;;;;;;16.40;99.90;;;;;;5112942;28;20364;-85
2023/06/30 04:49:26;;;;;;;;;;;16.40;99.90;;;;;;5121262;28;20304;-85
2023/06/30 04:51:52;;;;;;;;;;;16.40;99.90;;;;;;5100571;28;19915;-88
2023/06/30 04:54:19;;;;;;;;;;;16.30;99.90;;;;;;5113541;28;19916;-84
2023/06/30 04:56:44;;;;;;;;;;;16.30;99.90;;;;;;5109467;28;19908;-85
2023/06/30 04:59:12;;;;;;;;;;;16.40;99.90;;;;;;5088589;28;20181;-85
2023/06/30 05:01:38;;;;;;;;;;;16.40;99.90;;;;;;5088597;28;19919;-87
2023/06/30 05:04:04;;;;;;;;;;;16.50;99.90;;;;;;5094106;28;20368;-86
2023/06/30 05:06:29;;;;;;;;;;;16.70;99.90;;;;;;5111875;28;19915;-85
2023/06/30 05:08:55;;;;;;;;;;;17.10;99.90;;;;;;5096252;28;19912;-85
2023/06/30 05:11:21;;;;;;;;;;;17.60;99.90;;;;;;5116306;28;20349;-84
2023/06/30 05:13:46;;;;;;;;;;;18.00;99.90;;;;;;5114623;28;19919;-86
2023/06/30 05:16:12;;;;;;;;;;;18.10;99.90;;;;;;5088325;28;19911;-86
2023/06/30 05:18:38;;;;;;;;;;;18.10;99.90;;;;;;5115949;28;19912;-86
2023/06/30 05:21:03;;;;;;;;;;;18.10;99.70;;;;;;5101000;28;19908;-88
2023/06/30 05:23:29;;;;;;;;;;;18.10;99.30;;;;;;5109716;28;19908;-87
2023/06/30 05:25:58;;;;;;;;;;;17.90;99.00;;;;;;5098214;28;19911;-89
2023/06/30 05:28:24;;;;;;;;;;;17.70;99.10;;;;;;5101185;28;19912;-86
2023/06/30 05:30:50;;;;;;;;;;;17.50;99.20;;;;;;5108745;28;19908;-83
2023/06/30 05:33:15;;;;;;;;;;;17.50;99.30;;;;;;5119592;28;19970;-82
2023/06/30 05:35:41;;;;;;;;;;;17.70;99.50;;;;;;5117674;28;19943;-82
2023/06/30 05:38:07;;;;;;;;;;;17.80;99.30;;;;;;5103737;28;19915;-85
2023/06/30 05:40:33;;;;;;;;;;;17.90;99.40;;;;;;5132433;28;19949;-84
2023/06/30 05:42:58;;;;;;;;;;;18.20;99.40;;;;;;5115727;28;20364;-80
2023/06/30 05:45:25;;;;;;;;;;;18.60;99.00;;;;;;5113050;28;20078;-81
2023/06/30 05:47:50;;;;;;;;;;;18.70;97.60;;;;;;5116055;28;19938;-81
2023/06/30 05:50:17;;;;;;;;;;;18.60;97.40;;;;;;5125265;27;19908;-82
2023/06/30 05:52:43;;;;;;;;;;;18.50;97.30;;;;;;5129227;27;20233;-83
2023/06/30 05:55:08;;;;;;;;;;;18.50;97.50;;;;;;5132640;27;19919;-81
2023/06/30 05:57:34;;;;;;;;;;;18.70;97.60;;;;;;5111052;28;19961;-84
2023/06/30 06:00:00;;;;;;;;;;;18.80;97.20;;;;;;5127417;27;19998;-83
2023/06/30 06:02:25;;;;;;;;;;;18.80;96.70;;;;;;5109761;27;19919;-83
2023/06/30 06:04:51;;;;;;;;;;;18.70;96.60;;;;;;5102618;28;19977;-82
2023/06/30 06:07:17;;;;;;;;;;;18.60;96.60;;;;;;5097131;28;19916;-83
2023/06/30 06:09:43;;;;;;;;;;;18.60;96.70;;;;;;5085218;28;19918;-81
2023/06/30 06:12:09;;;;;;;;;;;18.70;96.80;;;;;;5106166;28;19908;-84
2023/06/30 06:14:34;;;;;;;;;;;18.70;96.30;;;;;;5097177;28;19908;-82
2023/06/30 06:17:00;;;;;;;;;;;18.60;96.20;;;;;;5098479;28;19916;-82
2023/06/30 06:19:26;;;;;;;;;;;18.50;96.40;;;;;;5106009;27;19927;-81
2023/06/30 06:21:51;;;;;;;;;;;18.50;96.50;;;;;;5100076;28;19908;-82
2023/06/30 06:24:17;;;;;;;;;;;18.60;96.80;;;;;;5111654;28;19907;-82
2023/06/30 06:26:43;;;;;;;;;;;18.80;96.50;;;;;;5092467;28;19916;-85
2023/06/30 06:29:09;;;;;;;;;;;19.10;96.10;;;;;;5108897;28;19951;-82
2023/06/30 06:31:34;;;;;;;;;;;19.20;95.90;;;;;;5102026;28;19911;-83
2023/06/30 06:34:00;;;;;;;;;;;19.40;95.80;;;;;;5088736;28;20297;-82
2023/06/30 06:36:26;;;;;;;;;;;19.40;94.90;;;;;;5123215;27;19952;-82
2023/06/30 06:38:51;;;;;;;;;;;19.20;94.90;;;;;;5105525;28;19912;-82
2023/06/30 06:41:17;;;;;;;;;;;19.10;95.00;;;;;;5091991;28;20317;-82
2023/06/30 06:43:43;;;;;;;;;;;18.80;95.10;;;;;;5120447;28;19908;-82
2023/06/30 06:46:08;;;;;;;;;;;18.50;95.50;;;;;;5117459;28;19916;-85
2023/06/30 06:48:34;;;;;;;;;;;18.10;96.20;;;;;;5098768;28;20318;-84
2023/06/30 06:51:01;;;;;;;;;;;18.00;96.70;;;;;;5096082;28;20388;-84
2023/06/30 06:53:27;;;;;;;;;;;18.00;96.80;;;;;;5095772;28;19916;-84
2023/06/30 06:55:53;;;;;;;;;;;18.00;96.90;;;;;;5078742;28;19920;-84
2023/06/30 06:58:19;;;;;;;;;;;18.00;96.60;;;;;;5097018;28;19908;-84
2023/06/30 07:00:46;;;;;;;;;;;17.90;96.70;;;;;;5099040;28;19912;-82
2023/06/30 07:03:12;;;;;;;;;;;18.00;97.00;;;;;;5116602;28;19915;-82
2023/06/30 07:05:41;;;;;;;;;;;18.20;96.90;;;;;;5087591;28;19916;-82
2023/06/30 07:08:07;;;;;;;;;;;18.30;96.80;;;;;;5105980;28;19908;-82
2023/06/30 07:10:33;;;;;;;;;;;18.40;96.60;;;;;;5100716;27;19998;-83
2023/06/30 07:12:59;;;;;;;;;;;18.50;96.30;;;;;;5109722;28;19961;-83
2023/06/30 07:15:25;;;;;;;;;;;18.60;96.40;;;;;;5118994;28;19993;-83
2023/06/30 07:17:51;;;;;;;;;;;18.70;96.10;;;;;;5099467;28;19947;-83
2023/06/30 07:20:16;;;;;;;;;;;18.80;95.90;;;;;;5096454;28;19959;-82
2023/06/30 07:22:42;;;;;;;;;;;19.00;96.00;;;;;;5111139;28;20352;-82
2023/06/30 07:25:08;;;;;;;;;;;19.20;95.20;;;;;;5103811;28;19939;-81
2023/06/30 07:27:38;;;;;;;;;;;19.10;95.10;;;;;;5119461;27;19922;-81
2023/06/30 07:30:07;;;;;;;;;;;19.00;95.00;;;;;;5097892;27;19908;-82
2023/06/30 07:32:34;;;;;;;;;;;18.80;94.70;;;;;;5078699;28;19908;-83
2023/06/30 07:35:00;;;;;;;;;;;18.70;94.90;;;;;;5100349;28;20334;-84
2023/06/30 07:37:26;;;;;;;;;;;18.70;94.80;;;;;;5097651;28;19912;-84
2023/06/30 07:39:52;;;;;;;;;;;18.60;94.60;;;;;;5098554;28;19908;-82
2023/06/30 07:42:17;;;;;;;;;;;18.50;94.80;;;;;;5094506;28;19908;-83
2023/06/30 07:44:43;;;;;;;;;;;18.60;95.20;;;;;;5107025;28;20381;-82
2023/06/30 07:47:09;;;;;;;;;;;18.70;95.10;;;;;;5101850;28;19947;-83
2023/06/30 07:49:34;;;;;;;;;;;18.80;94.60;;;;;;5087933;28;19908;-82
2023/06/30 07:52:00;;;;;;;;;;;18.70;94.40;;;;;;5085078;28;19984;-84
2023/06/30 07:54:26;;;;;;;;;;;18.60;94.60;;;;;;5083091;28;19912;-82
2023/06/30 07:56:51;;;;;;;;;;;18.70;95.10;;;;;;5079963;28;19908;-86
2023/06/30 07:59:17;;;;;;;;;;;18.70;94.80;;;;;;5102562;28;19914;-83
2023/06/30 08:01:43;;;;;;;;;;;18.70;94.70;;;;;;5115292;28;20343;-82
2023/06/30 08:04:08;;;;;;;;;;;18.70;95.00;;;;;;5103138;27;19932;-82
2023/06/30 08:06:34;;;;;;;;;;;18.70;94.80;;;;;;5078353;28;19973;-85
2023/06/30 08:09:00;;;;;;;;;;;18.70;94.90;;;;;;5095014;28;20034;-83
2023/06/30 08:11:26;;;;;;;;;;;18.80;94.80;;;;;;5082398;28;19976;-84
2023/06/30 08:13:51;;;;;;;;;;;19.00;94.80;;;;;;5095500;28;19915;-80
2023/06/30 08:16:17;;;;;;;;;;;19.30;94.70;;;;;;5095474;28;19940;-85
2023/06/30 08:18:43;;;;;;;;;;;19.50;93.70;;;;;;5093591;28;20005;-84
2023/06/30 08:21:08;;;;;;;;;;;19.50;93.20;;;;;;5083171;27;19912;-80
2023/06/30 08:23:34;;;;;;;;;;;19.40;92.90;;;;;;5114333;28;19907;-83
2023/06/30 08:26:00;;;;;;;;;;;19.50;93.00;;;;;;5083279;28;20008;-82
2023/06/30 08:28:25;;;;;;;;;;;19.70;93.20;;;;;;5097390;28;19916;-84
2023/06/30 08:30:51;;;;;;;;;;;19.90;93.20;;;;;;5077256;28;20259;-84
2023/06/30 08:33:17;;;;;;;;;;;20.00;92.50;;;;;;5097672;28;19961;-82
2023/06/30 08:35:43;;;;;;;;;;;20.00;92.20;;;;;;5104077;28;19912;-82
2023/06/30 08:38:08;;;;;;;;;;;20.20;92.40;;;;;;5092619;28;20373;-83
2023/06/30 08:40:34;;;;;;;;;;;20.80;92.40;;;;;;5113442;28;19931;-83
2023/06/30 08:43:03;;;;;;;;;;;21.50;92.10;;;;;;5083677;28;19912;-83
2023/06/30 08:45:29;;;;;;;;;;;22.00;91.50;;;;;;5110547;28;19908;-83
2023/06/30 08:48:07;;;;;;;;;;;22.50;90.40;;;;;;5090034;28;19987;-81
2023/06/30 08:50:36;;;;;;;;;;;22.70;87.20;;;;;;5107488;28;19997;-83
2023/06/30 08:53:02;;;;;;;;;;;22.50;87.10;;;;;;5075503;28;19908;-82
2023/06/30 08:55:29;;;;;;;;;;;22.50;87.10;;;;;;5095951;27;19967;-84
2023/06/30 08:57:58;;;;;;;;;;;22.20;85.30;;;;;;5094010;28;19978;-82
2023/06/30 09:00:24;;;;;;;;;;;21.60;85.30;;;;;;5101978;28;19915;-82
2023/06/30 09:02:50;;;;;;;;;;;21.10;86.10;;;;;;5096440;28;19998;-84
2023/06/30 09:05:16;;;;;;;;;;;20.80;87.00;;;;;;5096287;28;20011;-83
2023/06/30 09:07:43;;;;;;;;;;;20.20;88.60;;;;;;5109578;28;19943;-83
2023/06/30 09:10:09;;;;;;;;;;;19.30;90.50;;;;;;5095978;28;19931;-84
2023/06/30 09:12:37;;;;;;;;;;;18.70;92.20;;;;;;5100636;28;19945;-83
2023/06/30 09:15:02;;;;;;;;;;;18.30;93.30;;;;;;5121310;28;19908;-83
2023/06/30 09:17:29;;;;;;;;;;;18.00;95.00;;;;;;5107905;28;19908;-84
2023/06/30 09:19:55;;;;;;;;;;;17.60;95.90;;;;;;5081124;28;19998;-84
2023/06/30 09:22:20;;;;;;;;;;;17.20;97.30;;;;;;5101605;28;20333;-82
2023/06/30 09:24:47;;;;;;;;;;;16.80;98.80;;;;;;5110950;28;20326;-83
2023/06/30 09:27:13;;;;;;;;;;;16.60;99.90;;;;;;5108119;28;19939;-84
2023/06/30 09:29:39;;;;;;;;;;;16.50;99.90;;;;;;5087736;27;19911;-85
2023/06/30 09:32:05;;;;;;;;;;;16.50;99.90;;;;;;5106172;28;19908;-83
2023/06/30 09:34:30;;;;;;;;;;;16.50;99.90;;;;;;5085703;28;19908;-83
2023/06/30 09:36:56;;;;;;;;;;;16.50;99.90;;;;;;5086814;28;19961;-83
2023/06/30 09:39:22;;;;;;;;;;;16.60;99.90;;;;;;5104247;28;19908;-85
2023/06/30 09:41:49;;;;;;;;;;;16.60;99.90;;;;;;5101493;28;19907;-86
2023/06/30 09:44:17;;;;;;;;;;;17.00;99.90;;;;;;5089501;28;19934;-85
2023/06/30 09:46:50;;;;;;;;;;;17.30;99.90;;;;;;5100888;27;19920;-84
2023/06/30 09:49:45;;;;;;;;;;;17.50;99.90;;;;;;5122692;28;19912;-83
2023/06/30 09:52:21;;;;;;;;;;;17.20;99.90;;;;;;5088485;28;20254;-85
2023/06/30 09:54:48;;;;;;;;;;;17.10;99.90;;;;;;5105939;28;19999;-84
2023/06/30 09:57:15;;;;;;;;;;;17.00;99.90;;;;;;5118398;28;19908;-85
2023/06/30 09:59:41;;;;;;;;;;;16.90;99.90;;;;;;5109788;28;19975;-83
2023/06/30 10:02:06;;;;;;;;;;;16.90;99.90;;;;;;5080154;28;19954;-84
2023/06/30 10:04:33;;;;;;;;;;;17.00;99.90;;;;;;5095418;28;19937;-84
2023/06/30 10:07:00;;;;;;;;;;;17.00;99.90;;;;;;5109758;28;20006;-84
2023/06/30 10:09:27;;;;;;;;;;;17.20;99.90;;;;;;5104552;28;19951;-83
2023/06/30 10:11:55;;;;;;;;;;;17.20;99.90;;;;;;5107908;28;20339;-85
2023/06/30 10:14:26;;;;;;;;;;;17.10;99.90;;;;;;5078764;28;19912;-84
2023/06/30 10:16:53;;;;;;;;;;;17.20;99.90;;;;;;5098538;28;19909;-84
2023/06/30 10:19:19;;;;;;;;;;;17.20;99.90;;;;;;5098971;28;19908;-84
2023/06/30 10:21:44;;;;;;;;;;;17.40;99.90;;;;;;5098861;28;19912;-84
2023/06/30 10:24:10;;;;;;;;;;;17.50;99.90;;;;;;5085862;28;19915;-84
2023/06/30 10:26:36;;;;;;;;;;;17.50;99.90;;;;;;5078544;28;20315;-85
2023/06/30 10:29:02;;;;;;;;;;;17.60;99.90;;;;;;5096826;28;19919;-85
2023/06/30 10:31:28;;;;;;;;;;;17.80;99.90;;;;;;5111122;28;19908;-84
2023/06/30 10:33:54;;;;;;;;;;;18.00;99.90;;;;;;5106301;28;19931;-84
2023/06/30 10:36:19;;;;;;;;;;;18.20;99.90;;;;;;5082507;28;19999;-83
2023/06/30 10:38:46;;;;;;;;;;;18.40;99.90;;;;;;5128863;27;19932;-85
2023/06/30 10:41:18;;;;;;;;;;;18.50;99.90;;;;;;5087853;28;19915;-86
2023/06/30 10:44:02;;;;;;;;;;;18.40;99.90;;;;;;5080848;28;19991;-84
2023/06/30 10:46:40;;;;;;;;;;;18.20;99.90;;;;;;5085397;28;19938;-84
2023/06/30 10:49:05;;;;;;;;;;;18.10;99.90;;;;;;5079950;28;19916;-83
2023/06/30 10:51:35;;;;;;;;;;;18.40;99.90;;;;;;5094437;28;19912;-84
2023/06/30 10:54:01;;;;;;;;;;;18.60;99.90;;;;;;5121852;28;19915;-85
2023/06/30 10:56:27;;;;;;;;;;;18.50;99.90;;;;;;5111758;28;19958;-83
2023/06/30 10:58:55;;;;;;;;;;;18.50;99.90;;;;;;5121572;28;19912;-82
2023/06/30 11:01:21;;;;;;;;;;;18.30;99.90;;;;;;5112050;28;19935;-85
2023/06/30 11:03:56;;;;;;;;;;;18.00;99.90;;;;;;5096737;28;20340;-84
2023/06/30 11:06:22;;;;;;;;;;;17.70;99.90;;;;;;5102993;28;19930;-85
2023/06/30 11:09:00;;;;;;;;;;;17.40;99.90;;;;;;5104404;28;19911;-83
2023/06/30 11:11:29;;;;;;;;;;;17.20;99.90;;;;;;5100596;28;20323;-83
2023/06/30 11:14:04;;;;;;;;;;;17.10;99.90;;;;;;5111038;28;19918;-85
2023/06/30 11:16:30;;;;;;;;;;;17.40;99.90;;;;;;5098968;28;20369;-85
2023/06/30 11:19:02;;;;;;;;;;;17.40;99.90;;;;;;5080003;28;19918;-83
2023/06/30 11:21:30;;;;;;;;;;;17.40;99.90;;;;;;5121528;28;19914;-83
2023/06/30 11:23:56;;;;;;;;;;;17.40;99.90;;;;;;5109404;28;20322;-84
2023/06/30 11:26:22;;;;;;;;;;;17.40;99.90;;;;;;5119271;28;19923;-85
2023/06/30 11:28:48;;;;;;;;;;;17.40;99.90;;;;;;5121455;28;19912;-85
2023/06/30 11:31:15;;;;;;;;;;;17.30;99.90;;;;;;5100386;28;19908;-85
2023/06/30 11:33:41;;;;;;;;;;;17.30;99.90;;;;;;5104836;28;19930;-84
2023/06/30 11:36:13;;;;;;;;;;;17.20;99.90;;;;;;5101534;28;19912;-85
2023/06/30 11:38:45;;;;;;;;;;;17.20;99.90;;;;;;5081612;28;20020;-83
2023/06/30 11:41:11;;;;;;;;;;;17.20;99.90;;;;;;5118216;27;20356;-84
2023/06/30 11:43:37;;;;;;;;;;;17.10;99.90;;;;;;5122080;27;19918;-84
2023/06/30 11:46:02;;;;;;;;;;;17.00;99.90;;;;;;5091794;28;19912;-86
2023/06/30 11:48:38;;;;;;;;;;;17.10;99.90;;;;;;5119357;28;20471;-84
2023/06/30 11:51:04;;;;;;;;;;;17.20;99.90;;;;;;5121749;28;19912;-84
2023/06/30 11:53:30;;;;;;;;;;;17.20;99.90;;;;;;5110313;28;19915;-85
2023/06/30 11:55:59;;;;;;;;;;;17.30;99.90;;;;;;5108271;28;19927;-85
2023/06/30 11:58:25;;;;;;;;;;;17.40;99.90;;;;;;5124560;28;19908;-85
2023/06/30 12:00:50;;;;;;;;;;;17.70;99.90;;;;;;5103554;28;20698;-85
2023/06/30 12:03:19;;;;;;;;;;;17.90;99.90;;;;;;5110954;28;19998;-85
2023/06/30 12:05:56;;;;;;;;;;;18.20;99.90;;;;;;5092346;28;19916;-87
2023/06/30 12:08:24;;;;;;;;;;;18.40;99.90;;;;;;5117906;28;19908;-85
2023/06/30 12:10:49;;;;;;;;;;;18.80;99.90;;;;;;5106564;28;19923;-85
2023/06/30 12:13:17;;;;;;;;;;;19.00;99.90;;;;;;5117764;27;20685;-85
2023/06/30 12:15:43;;;;;;;;;;;18.80;99.90;;;;;;5125900;27;19972;-85
2023/06/30 12:18:09;;;;;;;;;;;18.40;99.90;;;;;;5080523;28;19908;-88
2023/06/30 12:20:35;;;;;;;;;;;18.30;99.90;;;;;;5107930;28;19907;-85
2023/06/30 12:23:01;;;;;;;;;;;18.50;99.90;;;;;;5102976;28;19986;-86
2023/06/30 12:25:31;;;;;;;;;;;18.90;99.90;;;;;;5117613;28;19907;-86
2023/06/30 12:27:57;;;;;;;;;;;19.20;99.90;;;;;;5118338;28;19912;-86
2023/06/30 12:30:23;;;;;;;;;;;19.40;99.90;;;;;;5092300;28;19930;-85
2023/06/30 12:32:58;;;;;;;;;;;19.40;99.90;;;;;;5083228;28;20362;-85
2023/06/30 12:35:30;;;;;;;;;;;19.20;99.90;;;;;;5103984;28;20296;-85
2023/06/30 12:37:56;;;;;;;;;;;19.00;99.90;;;;;;5110492;28;19923;-86
2023/06/30 12:40:22;;;;;;;;;;;18.80;99.90;;;;;;5087397;28;20296;-84
2023/06/30 12:42:48;;;;;;;;;;;18.60;99.90;;;;;;5108020;28;19979;-84
2023/06/30 12:45:15;;;;;;;;;;;18.40;99.90;;;;;;5103644;28;19908;-84
2023/06/30 12:47:40;;;;;;;;;;;18.50;99.90;;;;;;5092971;27;19943;-83
2023/06/30 12:50:06;;;;;;;;;;;18.70;99.90;;;;;;5106403;27;19911;-85
2023/06/30 12:52:32;;;;;;;;;;;18.90;99.90;;;;;;5085465;28;19983;-86
2023/06/30 12:54:59;;;;;;;;;;;19.10;99.90;;;;;;5108922;28;19938;-85
2023/06/30 12:57:25;;;;;;;;;;;19.40;99.90;;;;;;5103677;28;19951;-86
2023/06/30 12:59:51;;;;;;;;;;;19.50;99.90;;;;;;5083949;28;19934;-84
2023/06/30 13:02:16;;;;;;;;;;;19.50;99.90;;;;;;5096556;28;20357;-83
2023/06/30 13:04:42;;;;;;;;;;;19.20;99.90;;;;;;5108369;28;19908;-83
2023/06/30 13:07:08;;;;;;;;;;;18.90;99.90;;;;;;5094336;28;19927;-84
2023/06/30 13:09:33;;;;;;;;;;;18.90;99.90;;;;;;5099734;28;19908;-85
2023/06/30 13:11:59;;;;;;;;;;;18.70;99.90;;;;;;5096540;28;19914;-84
2023/06/30 13:14:25;;;;;;;;;;;18.70;99.90;;;;;;5099367;28;19919;-85
2023/06/30 13:16:51;;;;;;;;;;;18.50;99.90;;;;;;5106021;28;19912;-86
2023/06/30 13:19:17;;;;;;;;;;;18.40;99.90;;;;;;5094854;28;19961;-85
2023/06/30 13:21:42;;;;;;;;;;;18.40;99.90;;;;;;5094824;28;19919;-84
2023/06/30 13:24:08;;;;;;;;;;;18.40;99.90;;;;;;5084956;28;19908;-84
2023/06/30 13:26:34;;;;;;;;;;;18.30;99.90;;;;;;5099457;28;19922;-85
2023/06/30 13:29:02;;;;;;;;;;;18.30;99.90;;;;;;5113950;28;19908;-85
2023/06/30 13:31:28;;;;;;;;;;;18.40;99.90;;;;;;5092454;28;20361;-84
2023/06/30 13:33:54;;;;;;;;;;;18.30;99.90;;;;;;5076546;28;19915;-86
2023/06/30 13:36:19;;;;;;;;;;;18.20;99.90;;;;;;5080543;28;20329;-84
2023/06/30 13:38:46;;;;;;;;;;;18.10;99.90;;;;;;5104908;28;19911;-85
2023/06/30 13:41:12;;;;;;;;;;;18.10;99.90;;;;;;5120456;28;20364;-84
2023/06/30 13:43:38;;;;;;;;;;;18.10;99.90;;;;;;5093959;28;19908;-84
2023/06/30 13:46:04;;;;;;;;;;;18.00;99.90;;;;;;5105761;28;20014;-85
2023/06/30 13:48:30;;;;;;;;;;;17.90;99.90;;;;;;5097958;28;19908;-83
2023/06/30 13:50:55;;;;;;;;;;;17.80;99.90;;;;;;5085566;28;20435;-84
2023/06/30 13:53:21;;;;;;;;;;;17.80;99.90;;;;;;5086275;28;20319;-86
2023/06/30 13:55:47;;;;;;;;;;;17.70;99.90;;;;;;5113914;28;20010;-84
2023/06/30 13:58:13;;;;;;;;;;;17.60;99.90;;;;;;5102584;28;19955;-85
2023/06/30 14:00:39;;;;;;;;;;;17.40;99.90;;;;;;5099356;28;19939;-84
2023/06/30 14:03:05;;;;;;;;;;;17.20;99.90;;;;;;5114161;28;19922;-85
2023/06/30 14:05:30;;;;;;;;;;;17.00;99.90;;;;;;5100995;28;19943;-85
2023/06/30 14:07:56;;;;;;;;;;;16.90;99.90;;;;;;5093422;28;19916;-84
2023/06/30 14:10:22;;;;;;;;;;;16.70;99.90;;;;;;5114329;28;19915;-84
2023/06/30 14:12:48;;;;;;;;;;;16.40;99.90;;;;;;5100760;27;19996;-84